sensor_id;sensor_type;location;lat;lon;timestamp;P1;durP1;ratioP1;P2;durP2;ratioP2
44572;SDS011;31762;45.420;10.072;2022-09-09T00:04:59;6.13;;;4.90;;
44572;SDS011;31762;45.420;10.072;2022-09-09T00:21:11;5.88;;;4.88;;
44572;SDS011;31762;45.420;10.072;2022-09-09T00:31:43;7.20;;;5.07;;
44572;SDS011;31762;45.420;10.072;2022-09-09T00:36:45;7.22;;;4.65;;
44572;SDS011;31762;45.420;10.072;2022-09-09T00:41:57;8.33;;;5.27;;
44572;SDS011;31762;45.420;10.072;2022-09-09T00:57:42;11.57;;;6.87;;
44572;SDS011;31762;45.420;10.072;2022-09-09T01:07:54;10.40;;;7.50;;
44572;SDS011;31762;45.420;10.072;2022-09-09T01:12:58;8.57;;;6.20;;
44572;SDS011;31762;45.420;10.072;2022-09-09T01:18:06;10.45;;;6.07;;
44572;SDS011;31762;45.420;10.072;2022-09-09T01:23:23;8.05;;;6.00;;
44572;SDS011;31762;45.420;10.072;2022-09-09T01:28:45;9.68;;;6.10;;
44572;SDS011;31762;45.420;10.072;2022-09-09T01:33:51;7.10;;;5.75;;
44572;SDS011;31762;45.420;10.072;2022-09-09T01:38:53;7.95;;;5.85;;
44572;SDS011;31762;45.420;10.072;2022-09-09T01:43:55;8.18;;;6.10;;
44572;SDS011;31762;45.420;10.072;2022-09-09T01:48:58;8.35;;;6.25;;
44572;SDS011;31762;45.420;10.072;2022-09-09T01:54:02;9.55;;;6.05;;
44572;SDS011;31762;45.420;10.072;2022-09-09T01:59:15;9.93;;;6.43;;
44572;SDS011;31762;45.420;10.072;2022-09-09T02:09:46;8.75;;;6.47;;
44572;SDS011;31762;45.420;10.072;2022-09-09T02:14:55;7.63;;;6.28;;
44572;SDS011;31762;45.420;10.072;2022-09-09T02:20:08;9.80;;;7.10;;
44572;SDS011;31762;45.420;10.072;2022-09-09T02:25:13;12.43;;;7.33;;
44572;SDS011;31762;45.420;10.072;2022-09-09T02:30:18;11.90;;;7.47;;
44572;SDS011;31762;45.420;10.072;2022-09-09T02:35:21;12.60;;;6.80;;
44572;SDS011;31762;45.420;10.072;2022-09-09T02:40:25;8.93;;;7.10;;
44572;SDS011;31762;45.420;10.072;2022-09-09T02:45:29;11.63;;;7.20;;
44572;SDS011;31762;45.420;10.072;2022-09-09T02:50:48;8.68;;;6.90;;
44572;SDS011;31762;45.420;10.072;2022-09-09T02:55:59;9.87;;;7.83;;
44572;SDS011;31762;45.420;10.072;2022-09-09T03:01:11;10.75;;;7.13;;
44572;SDS011;31762;45.420;10.072;2022-09-09T03:06:13;9.40;;;6.90;;
44572;SDS011;31762;45.420;10.072;2022-09-09T03:11:16;10.38;;;6.78;;
44572;SDS011;31762;45.420;10.072;2022-09-09T03:16:17;8.93;;;7.35;;
44572;SDS011;31762;45.420;10.072;2022-09-09T03:21:19;9.68;;;6.55;;
44572;SDS011;31762;45.420;10.072;2022-09-09T03:26:21;8.98;;;6.32;;
44572;SDS011;31762;45.420;10.072;2022-09-09T03:31:23;7.67;;;5.73;;
44572;SDS011;31762;45.420;10.072;2022-09-09T03:36:25;6.57;;;5.82;;
44572;SDS011;31762;45.420;10.072;2022-09-09T03:41:27;6.88;;;4.97;;
44572;SDS011;31762;45.420;10.072;2022-09-09T03:46:29;6.15;;;4.57;;
44572;SDS011;31762;45.420;10.072;2022-09-09T03:51:31;6.72;;;4.78;;
44572;SDS011;31762;45.420;10.072;2022-09-09T03:56:33;9.57;;;5.38;;
44572;SDS011;31762;45.420;10.072;2022-09-09T04:01:35;8.48;;;4.82;;
44572;SDS011;31762;45.420;10.072;2022-09-09T04:06:37;6.43;;;5.22;;
44572;SDS011;31762;45.420;10.072;2022-09-09T04:11:38;7.15;;;5.07;;
44572;SDS011;31762;45.420;10.072;2022-09-09T04:16:40;6.83;;;4.73;;
44572;SDS011;31762;45.420;10.072;2022-09-09T04:21:42;6.50;;;4.60;;
44572;SDS011;31762;45.420;10.072;2022-09-09T04:26:44;6.57;;;4.97;;
44572;SDS011;31762;45.420;10.072;2022-09-09T04:31:46;6.03;;;4.20;;
44572;SDS011;31762;45.420;10.072;2022-09-09T04:36:47;8.68;;;4.28;;
44572;SDS011;31762;45.420;10.072;2022-09-09T04:41:49;6.30;;;4.83;;
44572;SDS011;31762;45.420;10.072;2022-09-09T04:46:51;5.50;;;4.30;;
44572;SDS011;31762;45.420;10.072;2022-09-09T04:51:52;7.45;;;4.68;;
44572;SDS011;31762;45.420;10.072;2022-09-09T04:56:54;6.90;;;5.32;;
44572;SDS011;31762;45.420;10.072;2022-09-09T05:01:56;7.93;;;5.03;;
44572;SDS011;31762;45.420;10.072;2022-09-09T05:06:58;8.03;;;5.63;;
44572;SDS011;31762;45.420;10.072;2022-09-09T05:12:00;8.45;;;5.25;;
44572;SDS011;31762;45.420;10.072;2022-09-09T05:17:02;7.33;;;5.23;;
44572;SDS011;31762;45.420;10.072;2022-09-09T05:22:04;7.93;;;5.70;;
44572;SDS011;31762;45.420;10.072;2022-09-09T05:27:05;6.60;;;5.30;;
44572;SDS011;31762;45.420;10.072;2022-09-09T05:32:07;5.63;;;5.00;;
44572;SDS011;31762;45.420;10.072;2022-09-09T05:37:15;8.10;;;5.17;;
44572;SDS011;31762;45.420;10.072;2022-09-09T05:42:17;8.18;;;5.38;;
44572;SDS011;31762;45.420;10.072;2022-09-09T05:47:18;9.23;;;5.43;;
44572;SDS011;31762;45.420;10.072;2022-09-09T05:52:20;5.60;;;4.40;;
44572;SDS011;31762;45.420;10.072;2022-09-09T05:57:22;9.57;;;5.50;;
44572;SDS011;31762;45.420;10.072;2022-09-09T06:02:24;6.28;;;5.10;;
44572;SDS011;31762;45.420;10.072;2022-09-09T06:07:25;5.33;;;4.17;;
44572;SDS011;31762;45.420;10.072;2022-09-09T06:12:27;9.20;;;5.05;;
44572;SDS011;31762;45.420;10.072;2022-09-09T06:17:29;5.43;;;3.90;;
44572;SDS011;31762;45.420;10.072;2022-09-09T06:22:30;6.87;;;4.30;;
44572;SDS011;31762;45.420;10.072;2022-09-09T06:27:32;7.10;;;3.90;;
44572;SDS011;31762;45.420;10.072;2022-09-09T06:32:34;4.60;;;3.28;;
44572;SDS011;31762;45.420;10.072;2022-09-09T06:37:36;4.60;;;3.70;;
44572;SDS011;31762;45.420;10.072;2022-09-09T06:42:37;5.03;;;3.20;;
44572;SDS011;31762;45.420;10.072;2022-09-09T06:47:39;5.75;;;3.80;;
44572;SDS011;31762;45.420;10.072;2022-09-09T06:52:41;4.87;;;3.67;;
44572;SDS011;31762;45.420;10.072;2022-09-09T06:57:43;7.22;;;3.83;;
44572;SDS011;31762;45.420;10.072;2022-09-09T07:02:44;7.43;;;4.20;;
44572;SDS011;31762;45.420;10.072;2022-09-09T07:07:46;6.78;;;4.35;;
44572;SDS011;31762;45.420;10.072;2022-09-09T07:12:51;6.07;;;4.45;;
44572;SDS011;31762;45.420;10.072;2022-09-09T07:17:53;7.18;;;4.70;;
44572;SDS011;31762;45.420;10.072;2022-09-09T07:22:55;5.63;;;4.50;;
44572;SDS011;31762;45.420;10.072;2022-09-09T07:27:56;5.17;;;4.17;;
44572;SDS011;31762;45.420;10.072;2022-09-09T07:32:58;5.57;;;3.70;;
44572;SDS011;31762;45.420;10.072;2022-09-09T07:38:00;1.13;;;0.40;;
44572;SDS011;31762;45.420;10.072;2022-09-09T07:43:02;0.52;;;0.45;;
44572;SDS011;31762;45.420;10.072;2022-09-09T07:48:04;3.10;;;0.28;;
44572;SDS011;31762;45.420;10.072;2022-09-09T07:53:06;1.15;;;0.50;;
44572;SDS011;31762;45.420;10.072;2022-09-09T07:58:08;3.93;;;0.73;;
44572;SDS011;31762;45.420;10.072;2022-09-09T08:03:10;0.73;;;0.50;;
44572;SDS011;31762;45.420;10.072;2022-09-09T08:08:12;0.75;;;0.40;;
44572;SDS011;31762;45.420;10.072;2022-09-09T08:13:13;2.35;;;0.43;;
44572;SDS011;31762;45.420;10.072;2022-09-09T08:18:18;2.33;;;0.43;;
44572;SDS011;31762;45.420;10.072;2022-09-09T08:23:20;1.70;;;0.68;;
44572;SDS011;31762;45.420;10.072;2022-09-09T08:28:22;1.50;;;0.57;;
44572;SDS011;31762;45.420;10.072;2022-09-09T08:33:24;1.60;;;0.40;;
44572;SDS011;31762;45.420;10.072;2022-09-09T08:38:25;1.40;;;0.57;;
44572;SDS011;31762;45.420;10.072;2022-09-09T08:43:27;0.55;;;0.30;;
44572;SDS011;31762;45.420;10.072;2022-09-09T08:48:44;0.80;;;0.40;;
44572;SDS011;31762;45.420;10.072;2022-09-09T08:53:55;1.13;;;0.63;;
44572;SDS011;31762;45.420;10.072;2022-09-09T08:59:01;1.13;;;0.32;;
44572;SDS011;31762;45.420;10.072;2022-09-09T09:14:29;0.70;;;0.50;;
44572;SDS011;31762;45.420;10.072;2022-09-09T09:19:33;1.17;;;0.50;;
44572;SDS011;31762;45.420;10.072;2022-09-09T09:29:47;0.65;;;0.20;;
44572;SDS011;31762;45.420;10.072;2022-09-09T09:35:11;1.00;;;0.57;;
44572;SDS011;31762;45.420;10.072;2022-09-09T09:40:15;1.52;;;0.73;;
44572;SDS011;31762;45.420;10.072;2022-09-09T09:45:35;3.05;;;0.60;;
44572;SDS011;31762;45.420;10.072;2022-09-09T09:55:59;0.93;;;0.63;;
44572;SDS011;31762;45.420;10.072;2022-09-09T10:01:04;2.05;;;0.60;;
44572;SDS011;31762;45.420;10.072;2022-09-09T10:06:06;0.82;;;0.40;;
44572;SDS011;31762;45.420;10.072;2022-09-09T10:16:53;1.55;;;0.73;;
44572;SDS011;31762;45.420;10.072;2022-09-09T10:33:16;0.73;;;0.20;;
44572;SDS011;31762;45.420;10.072;2022-09-09T10:54:51;1.00;;;0.30;;
44572;SDS011;31762;45.420;10.072;2022-09-09T11:00:04;1.87;;;0.93;;
44572;SDS011;31762;45.420;10.072;2022-09-09T11:10:42;1.30;;;0.52;;
44572;SDS011;31762;45.420;10.072;2022-09-09T11:16:05;2.13;;;0.50;;
44572;SDS011;31762;45.420;10.072;2022-09-09T11:21:23;1.10;;;0.60;;
44572;SDS011;31762;45.420;10.072;2022-09-09T11:26:33;1.70;;;0.20;;
44572;SDS011;31762;45.420;10.072;2022-09-09T11:41:46;0.93;;;0.30;;
44572;SDS011;31762;45.420;10.072;2022-09-09T11:46:49;1.70;;;0.30;;
44572;SDS011;31762;45.420;10.072;2022-09-09T11:51:52;1.67;;;0.30;;
44572;SDS011;31762;45.420;10.072;2022-09-09T11:56:54;1.67;;;0.60;;
44572;SDS011;31762;45.420;10.072;2022-09-09T12:02:03;1.10;;;0.20;;
44572;SDS011;31762;45.420;10.072;2022-09-09T12:07:28;1.13;;;0.43;;
44572;SDS011;31762;45.420;10.072;2022-09-09T12:12:34;2.47;;;0.50;;
44572;SDS011;31762;45.420;10.072;2022-09-09T12:17:48;1.77;;;0.50;;
44572;SDS011;31762;45.420;10.072;2022-09-09T12:28:13;0.57;;;0.40;;
44572;SDS011;31762;45.420;10.072;2022-09-09T12:33:19;1.27;;;0.63;;
44572;SDS011;31762;45.420;10.072;2022-09-09T12:38:54;1.70;;;0.60;;
44572;SDS011;31762;45.420;10.072;2022-09-09T12:43:49;2.08;;;0.90;;
44572;SDS011;31762;45.420;10.072;2022-09-09T12:48:51;0.90;;;0.67;;
44572;SDS011;31762;45.420;10.072;2022-09-09T12:53:54;1.53;;;0.80;;
44572;SDS011;31762;45.420;10.072;2022-09-09T12:58:57;2.00;;;1.00;;
44572;SDS011;31762;45.420;10.072;2022-09-09T13:03:59;1.77;;;1.10;;
44572;SDS011;31762;45.420;10.072;2022-09-09T13:09:02;2.73;;;1.00;;
44572;SDS011;31762;45.420;10.072;2022-09-09T13:14:03;1.20;;;0.80;;
44572;SDS011;31762;45.420;10.072;2022-09-09T13:19:15;0.90;;;0.60;;
44572;SDS011;31762;45.420;10.072;2022-09-09T13:29:31;1.60;;;1.00;;
44572;SDS011;31762;45.420;10.072;2022-09-09T13:34:34;1.50;;;0.50;;
44572;SDS011;31762;45.420;10.072;2022-09-09T13:39:36;0.73;;;0.40;;
44572;SDS011;31762;45.420;10.072;2022-09-09T13:44:39;1.83;;;0.73;;
44572;SDS011;31762;45.420;10.072;2022-09-09T13:49:41;1.95;;;0.88;;
44572;SDS011;31762;45.420;10.072;2022-09-09T13:54:47;0.80;;;0.63;;
44572;SDS011;31762;45.420;10.072;2022-09-09T13:59:50;1.52;;;0.60;;
44572;SDS011;31762;45.420;10.072;2022-09-09T14:05:05;1.90;;;0.75;;
44572;SDS011;31762;45.420;10.072;2022-09-09T14:10:08;2.50;;;1.00;;
44572;SDS011;31762;45.420;10.072;2022-09-09T14:15:11;3.60;;;0.80;;
44572;SDS011;31762;45.420;10.072;2022-09-09T14:20:14;0.90;;;0.70;;
44572;SDS011;31762;45.420;10.072;2022-09-09T14:25:16;2.53;;;1.60;;
44572;SDS011;31762;45.420;10.072;2022-09-09T14:30:17;2.03;;;0.73;;
44572;SDS011;31762;45.420;10.072;2022-09-09T14:35:19;1.50;;;0.70;;
44572;SDS011;31762;45.420;10.072;2022-09-09T14:40:21;1.15;;;0.80;;
44572;SDS011;31762;45.420;10.072;2022-09-09T14:45:23;2.95;;;0.45;;
44572;SDS011;31762;45.420;10.072;2022-09-09T14:50:25;1.00;;;0.80;;
44572;SDS011;31762;45.420;10.072;2022-09-09T14:55:26;1.10;;;0.50;;
44572;SDS011;31762;45.420;10.072;2022-09-09T15:00:28;2.47;;;1.00;;
44572;SDS011;31762;45.420;10.072;2022-09-09T15:05:30;1.45;;;0.80;;
44572;SDS011;31762;45.420;10.072;2022-09-09T15:10:32;1.65;;;0.40;;
44572;SDS011;31762;45.420;10.072;2022-09-09T15:15:33;1.45;;;0.70;;
44572;SDS011;31762;45.420;10.072;2022-09-09T15:20:35;2.22;;;0.80;;
44572;SDS011;31762;45.420;10.072;2022-09-09T15:25:50;2.75;;;0.80;;
44572;SDS011;31762;45.420;10.072;2022-09-09T15:30:55;1.23;;;0.70;;
44572;SDS011;31762;45.420;10.072;2022-09-09T15:35:57;1.08;;;0.63;;
44572;SDS011;31762;45.420;10.072;2022-09-09T15:40:59;1.60;;;1.00;;
44572;SDS011;31762;45.420;10.072;2022-09-09T15:46:02;1.35;;;0.60;;
44572;SDS011;31762;45.420;10.072;2022-09-09T15:51:17;2.03;;;0.77;;
44572;SDS011;31762;45.420;10.072;2022-09-09T15:56:39;2.10;;;0.60;;
44572;SDS011;31762;45.420;10.072;2022-09-09T16:01:42;1.88;;;0.90;;
44572;SDS011;31762;45.420;10.072;2022-09-09T16:06:44;0.80;;;0.40;;
44572;SDS011;31762;45.420;10.072;2022-09-09T16:11:46;0.97;;;0.67;;
44572;SDS011;31762;45.420;10.072;2022-09-09T16:16:48;2.70;;;0.77;;
44572;SDS011;31762;45.420;10.072;2022-09-09T16:21:50;3.93;;;0.93;;
44572;SDS011;31762;45.420;10.072;2022-09-09T16:26:52;3.90;;;1.17;;
44572;SDS011;31762;45.420;10.072;2022-09-09T16:31:55;2.70;;;0.60;;
44572;SDS011;31762;45.420;10.072;2022-09-09T16:37:03;0.60;;;0.60;;
44572;SDS011;31762;45.420;10.072;2022-09-09T16:42:05;0.97;;;0.60;;
44572;SDS011;31762;45.420;10.072;2022-09-09T16:47:07;2.72;;;0.65;;
44572;SDS011;31762;45.420;10.072;2022-09-09T16:52:08;0.82;;;0.40;;
44572;SDS011;31762;45.420;10.072;2022-09-09T16:57:10;0.87;;;0.50;;
44572;SDS011;31762;45.420;10.072;2022-09-09T17:02:12;0.88;;;0.50;;
44572;SDS011;31762;45.420;10.072;2022-09-09T17:07:14;0.70;;;0.40;;
44572;SDS011;31762;45.420;10.072;2022-09-09T17:12:15;1.10;;;0.30;;
44572;SDS011;31762;45.420;10.072;2022-09-09T17:17:17;1.80;;;0.50;;
44572;SDS011;31762;45.420;10.072;2022-09-09T17:22:32;2.50;;;0.90;;
44572;SDS011;31762;45.420;10.072;2022-09-09T17:27:33;1.58;;;1.10;;
44572;SDS011;31762;45.420;10.072;2022-09-09T17:32:35;1.00;;;0.50;;
44572;SDS011;31762;45.420;10.072;2022-09-09T17:37:37;1.23;;;0.70;;
44572;SDS011;31762;45.420;10.072;2022-09-09T17:42:38;1.92;;;0.80;;
44572;SDS011;31762;45.420;10.072;2022-09-09T17:47:40;1.20;;;0.70;;
44572;SDS011;31762;45.420;10.072;2022-09-09T17:52:42;1.97;;;0.80;;
44572;SDS011;31762;45.420;10.072;2022-09-09T17:57:44;1.38;;;0.70;;
44572;SDS011;31762;45.420;10.072;2022-09-09T18:02:45;1.38;;;0.77;;
44572;SDS011;31762;45.420;10.072;2022-09-09T18:07:47;1.80;;;0.60;;
44572;SDS011;31762;45.420;10.072;2022-09-09T18:12:49;1.33;;;0.98;;
44572;SDS011;31762;45.420;10.072;2022-09-09T18:17:51;1.95;;;0.90;;
44572;SDS011;31762;45.420;10.072;2022-09-09T18:22:53;3.00;;;1.40;;
44572;SDS011;31762;45.420;10.072;2022-09-09T18:27:56;2.92;;;1.58;;
44572;SDS011;31762;45.420;10.072;2022-09-09T18:32:58;3.17;;;1.80;;
44572;SDS011;31762;45.420;10.072;2022-09-09T18:37:59;2.15;;;1.65;;
44572;SDS011;31762;45.420;10.072;2022-09-09T18:43:01;3.50;;;1.73;;
44572;SDS011;31762;45.420;10.072;2022-09-09T18:48:03;2.23;;;2.00;;
44572;SDS011;31762;45.420;10.072;2022-09-09T18:53:05;4.13;;;2.20;;
44572;SDS011;31762;45.420;10.072;2022-09-09T18:58:07;4.20;;;1.88;;
44572;SDS011;31762;45.420;10.072;2022-09-09T19:03:08;3.23;;;1.73;;
44572;SDS011;31762;45.420;10.072;2022-09-09T19:08:10;2.85;;;1.73;;
44572;SDS011;31762;45.420;10.072;2022-09-09T19:13:12;3.10;;;1.83;;
44572;SDS011;31762;45.420;10.072;2022-09-09T19:18:14;2.92;;;1.48;;
44572;SDS011;31762;45.420;10.072;2022-09-09T19:23:15;3.20;;;1.33;;
44572;SDS011;31762;45.420;10.072;2022-09-09T19:28:17;2.22;;;1.20;;
44572;SDS011;31762;45.420;10.072;2022-09-09T19:33:19;1.80;;;1.10;;
44572;SDS011;31762;45.420;10.072;2022-09-09T19:38:20;1.40;;;1.07;;
44572;SDS011;31762;45.420;10.072;2022-09-09T19:43:23;1.52;;;0.70;;
44572;SDS011;31762;45.420;10.072;2022-09-09T19:48:25;0.90;;;0.70;;
44572;SDS011;31762;45.420;10.072;2022-09-09T19:53:27;1.13;;;0.80;;
44572;SDS011;31762;45.420;10.072;2022-09-09T19:58:29;1.58;;;0.95;;
44572;SDS011;31762;45.420;10.072;2022-09-09T20:03:31;3.65;;;1.10;;
44572;SDS011;31762;45.420;10.072;2022-09-09T20:08:35;1.25;;;0.77;;
44572;SDS011;31762;45.420;10.072;2022-09-09T20:13:38;2.05;;;1.20;;
44572;SDS011;31762;45.420;10.072;2022-09-09T20:18:41;1.25;;;0.98;;
44572;SDS011;31762;45.420;10.072;2022-09-09T20:23:46;1.33;;;1.10;;
44572;SDS011;31762;45.420;10.072;2022-09-09T20:28:49;1.85;;;1.08;;
44572;SDS011;31762;45.420;10.072;2022-09-09T20:33:52;1.75;;;1.00;;
44572;SDS011;31762;45.420;10.072;2022-09-09T20:38:58;0.90;;;0.80;;
44572;SDS011;31762;45.420;10.072;2022-09-09T20:44:06;1.52;;;0.93;;
44572;SDS011;31762;45.420;10.072;2022-09-09T20:49:10;2.30;;;0.77;;
44572;SDS011;31762;45.420;10.072;2022-09-09T20:54:13;3.15;;;0.88;;
44572;SDS011;31762;45.420;10.072;2022-09-09T20:59:18;1.92;;;0.68;;
44572;SDS011;31762;45.420;10.072;2022-09-09T21:04:21;1.67;;;0.80;;
44572;SDS011;31762;45.420;10.072;2022-09-09T21:09:23;2.13;;;0.65;;
44572;SDS011;31762;45.420;10.072;2022-09-09T21:14:25;2.03;;;0.85;;
44572;SDS011;31762;45.420;10.072;2022-09-09T21:19:27;3.15;;;1.05;;
44572;SDS011;31762;45.420;10.072;2022-09-09T21:24:29;1.87;;;0.90;;
44572;SDS011;31762;45.420;10.072;2022-09-09T21:29:30;1.33;;;0.80;;
44572;SDS011;31762;45.420;10.072;2022-09-09T21:34:33;2.13;;;1.00;;
44572;SDS011;31762;45.420;10.072;2022-09-09T21:39:35;1.47;;;0.83;;
44572;SDS011;31762;45.420;10.072;2022-09-09T21:44:36;1.85;;;0.80;;
44572;SDS011;31762;45.420;10.072;2022-09-09T21:49:38;2.03;;;0.73;;
44572;SDS011;31762;45.420;10.072;2022-09-09T21:54:40;1.15;;;0.73;;
44572;SDS011;31762;45.420;10.072;2022-09-09T21:59:41;1.30;;;0.85;;
44572;SDS011;31762;45.420;10.072;2022-09-09T22:04:43;0.80;;;0.67;;
44572;SDS011;31762;45.420;10.072;2022-09-09T22:09:45;2.35;;;0.70;;
44572;SDS011;31762;45.420;10.072;2022-09-09T22:14:47;1.27;;;0.70;;
44572;SDS011;31762;45.420;10.072;2022-09-09T22:19:49;1.95;;;0.70;;
44572;SDS011;31762;45.420;10.072;2022-09-09T22:24:51;1.97;;;0.70;;
44572;SDS011;31762;45.420;10.072;2022-09-09T22:29:53;1.55;;;0.95;;
44572;SDS011;31762;45.420;10.072;2022-09-09T22:34:55;1.30;;;1.02;;
44572;SDS011;31762;45.420;10.072;2022-09-09T22:39:56;1.93;;;0.73;;
44572;SDS011;31762;45.420;10.072;2022-09-09T22:44:58;1.33;;;0.55;;
44572;SDS011;31762;45.420;10.072;2022-09-09T22:50:00;1.38;;;0.60;;
44572;SDS011;31762;45.420;10.072;2022-09-09T22:55:01;1.05;;;0.68;;
44572;SDS011;31762;45.420;10.072;2022-09-09T23:00:04;1.60;;;0.50;;
44572;SDS011;31762;45.420;10.072;2022-09-09T23:05:06;0.63;;;0.50;;
44572;SDS011;31762;45.420;10.072;2022-09-09T23:10:08;3.58;;;0.40;;
44572;SDS011;31762;45.420;10.072;2022-09-09T23:15:10;0.68;;;0.43;;
44572;SDS011;31762;45.420;10.072;2022-09-09T23:20:12;0.80;;;0.40;;
44572;SDS011;31762;45.420;10.072;2022-09-09T23:25:13;1.20;;;0.50;;
44572;SDS011;31762;45.420;10.072;2022-09-09T23:30:15;2.22;;;1.00;;
44572;SDS011;31762;45.420;10.072;2022-09-09T23:35:17;5.50;;;0.80;;
44572;SDS011;31762;45.420;10.072;2022-09-09T23:40:19;4.33;;;1.50;;
44572;SDS011;31762;45.420;10.072;2022-09-09T23:45:20;4.90;;;1.80;;
44572;SDS011;31762;45.420;10.072;2022-09-09T23:50:22;2.47;;;1.23;;
44572;SDS011;31762;45.420;10.072;2022-09-09T23:55:24;4.35;;;0.90;;
